sensor_id;sensor_type;location;lat;lon;timestamp;P1;durP1;ratioP1;P2;durP2;ratioP2
26582;SDS011;14230;45.382;10.998;2023-03-23T00:01:11;48.95;;;29.05;;
26582;SDS011;14230;45.382;10.998;2023-03-23T00:03:40;51.13;;;28.83;;
26582;SDS011;14230;45.382;10.998;2023-03-23T00:06:07;48.88;;;27.63;;
26582;SDS011;14230;45.382;10.998;2023-03-23T00:08:35;49.25;;;28.35;;
26582;SDS011;14230;45.382;10.998;2023-03-23T00:11:04;54.58;;;28.33;;
26582;SDS011;14230;45.382;10.998;2023-03-23T00:13:30;51.42;;;27.42;;
26582;SDS011;14230;45.382;10.998;2023-03-23T00:15:58;47.80;;;27.00;;
26582;SDS011;14230;45.382;10.998;2023-03-23T00:18:25;49.58;;;28.10;;
26582;SDS011;14230;45.382;10.998;2023-03-23T00:20:52;52.78;;;27.67;;
26582;SDS011;14230;45.382;10.998;2023-03-23T00:23:23;52.47;;;27.55;;
26582;SDS011;14230;45.382;10.998;2023-03-23T00:25:52;43.22;;;26.60;;
26582;SDS011;14230;45.382;10.998;2023-03-23T00:28:22;54.92;;;27.80;;
26582;SDS011;14230;45.382;10.998;2023-03-23T00:31:04;51.85;;;28.80;;
26582;SDS011;14230;45.382;10.998;2023-03-23T00:33:35;54.70;;;27.67;;
26582;SDS011;14230;45.382;10.998;2023-03-23T00:36:07;49.65;;;27.38;;
26582;SDS011;14230;45.382;10.998;2023-03-23T00:38:35;56.75;;;29.27;;
26582;SDS011;14230;45.382;10.998;2023-03-23T00:41:02;56.88;;;29.10;;
26582;SDS011;14230;45.382;10.998;2023-03-23T00:43:29;54.47;;;29.27;;
26582;SDS011;14230;45.382;10.998;2023-03-23T00:45:56;55.80;;;29.33;;
26582;SDS011;14230;45.382;10.998;2023-03-23T00:48:27;53.28;;;28.27;;
26582;SDS011;14230;45.382;10.998;2023-03-23T00:50:55;53.40;;;28.33;;
26582;SDS011;14230;45.382;10.998;2023-03-23T00:53:22;52.75;;;29.33;;
26582;SDS011;14230;45.382;10.998;2023-03-23T00:55:48;53.85;;;28.75;;
26582;SDS011;14230;45.382;10.998;2023-03-23T00:58:16;55.55;;;28.48;;
26582;SDS011;14230;45.382;10.998;2023-03-23T01:00:42;52.15;;;30.45;;
26582;SDS011;14230;45.382;10.998;2023-03-23T01:03:09;48.90;;;28.10;;
26582;SDS011;14230;45.382;10.998;2023-03-23T01:05:44;55.33;;;29.35;;
26582;SDS011;14230;45.382;10.998;2023-03-23T01:08:13;53.70;;;28.60;;
26582;SDS011;14230;45.382;10.998;2023-03-23T01:10:40;50.55;;;28.02;;
26582;SDS011;14230;45.382;10.998;2023-03-23T01:13:09;56.88;;;28.63;;
26582;SDS011;14230;45.382;10.998;2023-03-23T01:15:36;56.95;;;28.58;;
26582;SDS011;14230;45.382;10.998;2023-03-23T01:18:03;47.70;;;28.73;;
26582;SDS011;14230;45.382;10.998;2023-03-23T01:20:30;51.75;;;27.92;;
26582;SDS011;14230;45.382;10.998;2023-03-23T01:22:58;51.78;;;27.70;;
26582;SDS011;14230;45.382;10.998;2023-03-23T01:25:28;47.47;;;26.55;;
26582;SDS011;14230;45.382;10.998;2023-03-23T01:27:56;52.13;;;29.42;;
26582;SDS011;14230;45.382;10.998;2023-03-23T01:30:24;47.28;;;28.02;;
26582;SDS011;14230;45.382;10.998;2023-03-23T01:32:52;49.92;;;27.88;;
26582;SDS011;14230;45.382;10.998;2023-03-23T01:35:19;53.97;;;28.20;;
26582;SDS011;14230;45.382;10.998;2023-03-23T01:37:46;48.70;;;28.52;;
26582;SDS011;14230;45.382;10.998;2023-03-23T01:40:14;48.92;;;28.65;;
26582;SDS011;14230;45.382;10.998;2023-03-23T01:42:41;53.15;;;28.15;;
26582;SDS011;14230;45.382;10.998;2023-03-23T01:45:20;48.75;;;27.27;;
26582;SDS011;14230;45.382;10.998;2023-03-23T01:53:37;51.20;;;26.85;;
26582;SDS011;14230;45.382;10.998;2023-03-23T01:56:06;47.60;;;27.67;;
26582;SDS011;14230;45.382;10.998;2023-03-23T01:58:37;51.60;;;28.42;;
26582;SDS011;14230;45.382;10.998;2023-03-23T02:01:06;49.47;;;26.73;;
26582;SDS011;14230;45.382;10.998;2023-03-23T02:03:38;49.38;;;26.88;;
26582;SDS011;14230;45.382;10.998;2023-03-23T02:06:07;48.05;;;26.83;;
26582;SDS011;14230;45.382;10.998;2023-03-23T02:08:38;53.95;;;28.02;;
26582;SDS011;14230;45.382;10.998;2023-03-23T02:11:17;49.03;;;26.83;;
26582;SDS011;14230;45.382;10.998;2023-03-23T02:13:44;54.05;;;28.40;;
26582;SDS011;14230;45.382;10.998;2023-03-23T02:16:17;50.97;;;27.90;;
26582;SDS011;14230;45.382;10.998;2023-03-23T02:24:40;54.85;;;28.90;;
26582;SDS011;14230;45.382;10.998;2023-03-23T02:35:28;48.13;;;27.05;;
26582;SDS011;14230;45.382;10.998;2023-03-23T02:38:02;51.88;;;29.30;;
26582;SDS011;14230;45.382;10.998;2023-03-23T02:40:41;53.72;;;28.30;;
26582;SDS011;14230;45.382;10.998;2023-03-23T02:43:15;50.50;;;28.90;;
26582;SDS011;14230;45.382;10.998;2023-03-23T02:45:45;52.25;;;28.73;;
26582;SDS011;14230;45.382;10.998;2023-03-23T02:48:13;50.17;;;28.33;;
26582;SDS011;14230;45.382;10.998;2023-03-23T02:50:43;46.85;;;28.33;;
26582;SDS011;14230;45.382;10.998;2023-03-23T02:53:13;52.55;;;29.20;;
26582;SDS011;14230;45.382;10.998;2023-03-23T02:55:44;51.38;;;28.52;;
26582;SDS011;14230;45.382;10.998;2023-03-23T02:58:15;50.22;;;26.73;;
26582;SDS011;14230;45.382;10.998;2023-03-23T03:00:45;49.40;;;28.75;;
26582;SDS011;14230;45.382;10.998;2023-03-23T03:03:15;50.83;;;25.92;;
26582;SDS011;14230;45.382;10.998;2023-03-23T03:08:47;50.13;;;27.35;;
26582;SDS011;14230;45.382;10.998;2023-03-23T03:11:33;48.10;;;27.02;;
26582;SDS011;14230;45.382;10.998;2023-03-23T03:14:08;46.83;;;26.65;;
26582;SDS011;14230;45.382;10.998;2023-03-23T03:17:01;48.30;;;25.98;;
26582;SDS011;14230;45.382;10.998;2023-03-23T03:19:31;49.78;;;28.23;;
26582;SDS011;14230;45.382;10.998;2023-03-23T03:22:01;47.15;;;26.77;;
26582;SDS011;14230;45.382;10.998;2023-03-23T03:24:38;50.05;;;28.02;;
26582;SDS011;14230;45.382;10.998;2023-03-23T03:27:10;58.10;;;27.83;;
26582;SDS011;14230;45.382;10.998;2023-03-23T03:29:49;47.97;;;26.40;;
26582;SDS011;14230;45.382;10.998;2023-03-23T03:32:21;36.58;;;21.27;;
26582;SDS011;14230;45.382;10.998;2023-03-23T03:34:51;50.15;;;26.50;;
26582;SDS011;14230;45.382;10.998;2023-03-23T03:37:19;51.00;;;28.58;;
26582;SDS011;14230;45.382;10.998;2023-03-23T03:39:49;46.58;;;27.58;;
26582;SDS011;14230;45.382;10.998;2023-03-23T03:42:17;54.63;;;28.10;;
26582;SDS011;14230;45.382;10.998;2023-03-23T03:44:43;59.83;;;31.10;;
26582;SDS011;14230;45.382;10.998;2023-03-23T03:47:09;62.85;;;30.50;;
26582;SDS011;14230;45.382;10.998;2023-03-23T03:49:36;53.85;;;30.75;;
26582;SDS011;14230;45.382;10.998;2023-03-23T03:52:02;60.13;;;30.35;;
26582;SDS011;14230;45.382;10.998;2023-03-23T03:54:39;56.05;;;31.15;;
26582;SDS011;14230;45.382;10.998;2023-03-23T03:57:06;55.90;;;31.50;;
26582;SDS011;14230;45.382;10.998;2023-03-23T03:59:33;58.83;;;31.75;;
26582;SDS011;14230;45.382;10.998;2023-03-23T04:02:20;59.25;;;31.40;;
26582;SDS011;14230;45.382;10.998;2023-03-23T04:04:49;55.10;;;28.45;;
26582;SDS011;14230;45.382;10.998;2023-03-23T04:07:18;64.13;;;32.33;;
26582;SDS011;14230;45.382;10.998;2023-03-23T04:09:45;54.90;;;30.23;;
26582;SDS011;14230;45.382;10.998;2023-03-23T04:12:15;59.75;;;29.65;;
26582;SDS011;14230;45.382;10.998;2023-03-23T04:14:57;57.28;;;31.75;;
26582;SDS011;14230;45.382;10.998;2023-03-23T04:17:31;54.58;;;29.60;;
26582;SDS011;14230;45.382;10.998;2023-03-23T04:19:58;52.90;;;29.55;;
26582;SDS011;14230;45.382;10.998;2023-03-23T04:22:32;51.13;;;28.38;;
26582;SDS011;14230;45.382;10.998;2023-03-23T04:25:00;56.45;;;29.73;;
26582;SDS011;14230;45.382;10.998;2023-03-23T04:27:33;59.38;;;29.95;;
26582;SDS011;14230;45.382;10.998;2023-03-23T04:30:02;55.67;;;30.17;;
26582;SDS011;14230;45.382;10.998;2023-03-23T04:32:36;52.70;;;29.90;;
26582;SDS011;14230;45.382;10.998;2023-03-23T04:35:10;58.88;;;30.20;;
26582;SDS011;14230;45.382;10.998;2023-03-23T04:37:48;49.90;;;29.92;;
26582;SDS011;14230;45.382;10.998;2023-03-23T04:40:19;50.63;;;28.73;;
26582;SDS011;14230;45.382;10.998;2023-03-23T04:42:56;49.55;;;27.55;;
26582;SDS011;14230;45.382;10.998;2023-03-23T04:45:42;54.58;;;30.13;;
26582;SDS011;14230;45.382;10.998;2023-03-23T04:48:12;63.00;;;33.00;;
26582;SDS011;14230;45.382;10.998;2023-03-23T04:50:56;65.47;;;31.85;;
26582;SDS011;14230;45.382;10.998;2023-03-23T04:53:28;54.50;;;30.63;;
26582;SDS011;14230;45.382;10.998;2023-03-23T04:55:56;55.25;;;30.13;;
26582;SDS011;14230;45.382;10.998;2023-03-23T04:58:25;59.47;;;31.05;;
26582;SDS011;14230;45.382;10.998;2023-03-23T05:01:23;56.80;;;30.13;;
26582;SDS011;14230;45.382;10.998;2023-03-23T05:06:34;52.75;;;29.13;;
26582;SDS011;14230;45.382;10.998;2023-03-23T05:09:06;56.15;;;29.83;;
26582;SDS011;14230;45.382;10.998;2023-03-23T05:11:34;55.05;;;29.98;;
26582;SDS011;14230;45.382;10.998;2023-03-23T05:14:00;65.18;;;31.58;;
26582;SDS011;14230;45.382;10.998;2023-03-23T05:16:28;60.03;;;30.63;;
26582;SDS011;14230;45.382;10.998;2023-03-23T05:18:56;62.30;;;33.30;;
26582;SDS011;14230;45.382;10.998;2023-03-23T05:21:25;52.33;;;29.58;;
26582;SDS011;14230;45.382;10.998;2023-03-23T05:23:53;58.17;;;30.33;;
26582;SDS011;14230;45.382;10.998;2023-03-23T05:26:20;50.22;;;29.88;;
26582;SDS011;14230;45.382;10.998;2023-03-23T05:28:51;56.65;;;29.65;;
26582;SDS011;14230;45.382;10.998;2023-03-23T05:31:36;56.15;;;29.80;;
26582;SDS011;14230;45.382;10.998;2023-03-23T05:34:03;58.03;;;32.47;;
26582;SDS011;14230;45.382;10.998;2023-03-23T05:36:49;55.50;;;29.42;;
26582;SDS011;14230;45.382;10.998;2023-03-23T05:39:44;48.92;;;28.98;;
26582;SDS011;14230;45.382;10.998;2023-03-23T05:42:13;57.53;;;30.98;;
26582;SDS011;14230;45.382;10.998;2023-03-23T05:44:58;52.78;;;29.75;;
26582;SDS011;14230;45.382;10.998;2023-03-23T05:47:25;59.90;;;33.10;;
26582;SDS011;14230;45.382;10.998;2023-03-23T05:49:55;53.70;;;31.02;;
26582;SDS011;14230;45.382;10.998;2023-03-23T05:52:24;60.45;;;31.40;;
26582;SDS011;14230;45.382;10.998;2023-03-23T05:54:51;58.65;;;31.13;;
26582;SDS011;14230;45.382;10.998;2023-03-23T05:57:20;60.97;;;31.85;;
26582;SDS011;14230;45.382;10.998;2023-03-23T05:59:59;55.00;;;30.75;;
26582;SDS011;14230;45.382;10.998;2023-03-23T06:02:38;54.83;;;30.52;;
26582;SDS011;14230;45.382;10.998;2023-03-23T06:05:11;53.55;;;30.98;;
26582;SDS011;14230;45.382;10.998;2023-03-23T06:07:40;57.65;;;29.50;;
26582;SDS011;14230;45.382;10.998;2023-03-23T06:10:08;55.05;;;29.95;;
26582;SDS011;14230;45.382;10.998;2023-03-23T06:12:42;69.80;;;33.72;;
26582;SDS011;14230;45.382;10.998;2023-03-23T06:15:33;65.72;;;30.23;;
26582;SDS011;14230;45.382;10.998;2023-03-23T06:18:03;74.00;;;32.17;;
26582;SDS011;14230;45.382;10.998;2023-03-23T06:20:43;56.50;;;32.30;;
26582;SDS011;14230;45.382;10.998;2023-03-23T06:23:25;57.17;;;31.90;;
26582;SDS011;14230;45.382;10.998;2023-03-23T06:25:53;63.55;;;32.75;;
26582;SDS011;14230;45.382;10.998;2023-03-23T06:30:55;77.30;;;33.83;;
26582;SDS011;14230;45.382;10.998;2023-03-23T06:33:26;52.65;;;27.77;;
26582;SDS011;14230;45.382;10.998;2023-03-23T06:36:12;52.33;;;30.63;;
26582;SDS011;14230;45.382;10.998;2023-03-23T06:38:48;50.90;;;28.27;;
26582;SDS011;14230;45.382;10.998;2023-03-23T06:41:18;49.42;;;28.23;;
26582;SDS011;14230;45.382;10.998;2023-03-23T06:43:45;70.28;;;29.70;;
26582;SDS011;14230;45.382;10.998;2023-03-23T06:46:14;75.40;;;34.00;;
26582;SDS011;14230;45.382;10.998;2023-03-23T06:48:40;53.60;;;29.23;;
26582;SDS011;14230;45.382;10.998;2023-03-23T06:51:10;77.70;;;30.70;;
26582;SDS011;14230;45.382;10.998;2023-03-23T06:53:39;63.95;;;28.80;;
26582;SDS011;14230;45.382;10.998;2023-03-23T06:56:10;49.58;;;29.23;;
26582;SDS011;14230;45.382;10.998;2023-03-23T06:58:39;62.28;;;29.85;;
26582;SDS011;14230;45.382;10.998;2023-03-23T07:01:08;124.40;;;32.05;;
26582;SDS011;14230;45.382;10.998;2023-03-23T07:03:41;57.42;;;30.60;;
26582;SDS011;14230;45.382;10.998;2023-03-23T07:06:12;58.75;;;29.35;;
26582;SDS011;14230;45.382;10.998;2023-03-23T07:08:46;53.63;;;29.90;;
26582;SDS011;14230;45.382;10.998;2023-03-23T07:11:21;57.92;;;29.77;;
26582;SDS011;14230;45.382;10.998;2023-03-23T07:13:47;57.70;;;30.60;;
26582;SDS011;14230;45.382;10.998;2023-03-23T07:16:16;53.00;;;29.83;;
26582;SDS011;14230;45.382;10.998;2023-03-23T07:18:45;51.33;;;30.00;;
26582;SDS011;14230;45.382;10.998;2023-03-23T07:21:12;141.20;;;32.90;;
26582;SDS011;14230;45.382;10.998;2023-03-23T07:23:40;48.75;;;29.38;;
26582;SDS011;14230;45.382;10.998;2023-03-23T07:26:10;50.80;;;28.20;;
26582;SDS011;14230;45.382;10.998;2023-03-23T07:28:41;51.65;;;29.58;;
26582;SDS011;14230;45.382;10.998;2023-03-23T07:31:22;48.25;;;28.90;;
26582;SDS011;14230;45.382;10.998;2023-03-23T07:33:49;49.75;;;30.02;;
26582;SDS011;14230;45.382;10.998;2023-03-23T07:36:16;59.75;;;29.80;;
26582;SDS011;14230;45.382;10.998;2023-03-23T07:38:43;46.72;;;29.60;;
26582;SDS011;14230;45.382;10.998;2023-03-23T07:41:09;50.42;;;29.92;;
26582;SDS011;14230;45.382;10.998;2023-03-23T07:43:39;46.38;;;28.95;;
26582;SDS011;14230;45.382;10.998;2023-03-23T07:46:10;51.05;;;31.42;;
26582;SDS011;14230;45.382;10.998;2023-03-23T07:48:49;54.63;;;30.98;;
26582;SDS011;14230;45.382;10.998;2023-03-23T07:51:17;51.38;;;30.88;;
26582;SDS011;14230;45.382;10.998;2023-03-23T07:53:47;49.30;;;33.13;;
26582;SDS011;14230;45.382;10.998;2023-03-23T07:56:34;47.67;;;31.13;;
26582;SDS011;14230;45.382;10.998;2023-03-23T07:59:14;49.17;;;31.83;;
26582;SDS011;14230;45.382;10.998;2023-03-23T08:01:42;47.33;;;31.40;;
26582;SDS011;14230;45.382;10.998;2023-03-23T08:04:34;53.88;;;37.63;;
26582;SDS011;14230;45.382;10.998;2023-03-23T08:07:30;54.60;;;35.85;;
26582;SDS011;14230;45.382;10.998;2023-03-23T08:10:21;52.50;;;35.88;;
26582;SDS011;14230;45.382;10.998;2023-03-23T08:13:15;47.45;;;30.02;;
26582;SDS011;14230;45.382;10.998;2023-03-23T08:15:50;47.38;;;31.15;;
26582;SDS011;14230;45.382;10.998;2023-03-23T08:18:35;47.20;;;30.52;;
26582;SDS011;14230;45.382;10.998;2023-03-23T08:21:37;46.72;;;29.60;;
26582;SDS011;14230;45.382;10.998;2023-03-23T08:24:33;40.03;;;28.63;;
26582;SDS011;14230;45.382;10.998;2023-03-23T08:27:25;47.20;;;33.00;;
26582;SDS011;14230;45.382;10.998;2023-03-23T08:30:11;45.88;;;29.77;;
26582;SDS011;14230;45.382;10.998;2023-03-23T08:32:42;41.55;;;30.73;;
26582;SDS011;14230;45.382;10.998;2023-03-23T08:35:22;44.20;;;29.75;;
26582;SDS011;14230;45.382;10.998;2023-03-23T08:38:12;41.08;;;30.23;;
26582;SDS011;14230;45.382;10.998;2023-03-23T08:41:08;42.97;;;30.98;;
26582;SDS011;14230;45.382;10.998;2023-03-23T08:43:56;45.50;;;31.38;;
26582;SDS011;14230;45.382;10.998;2023-03-23T08:46:49;40.33;;;30.52;;
26582;SDS011;14230;45.382;10.998;2023-03-23T08:49:46;40.10;;;30.88;;
26582;SDS011;14230;45.382;10.998;2023-03-23T08:52:31;38.78;;;30.33;;
26582;SDS011;14230;45.382;10.998;2023-03-23T08:55:13;43.38;;;35.53;;
26582;SDS011;14230;45.382;10.998;2023-03-23T08:57:54;37.58;;;31.80;;
26582;SDS011;14230;45.382;10.998;2023-03-23T09:00:40;40.83;;;33.17;;
26582;SDS011;14230;45.382;10.998;2023-03-23T09:03:17;37.03;;;29.75;;
26582;SDS011;14230;45.382;10.998;2023-03-23T09:06:04;40.92;;;31.08;;
26582;SDS011;14230;45.382;10.998;2023-03-23T09:08:41;40.95;;;31.60;;
26582;SDS011;14230;45.382;10.998;2023-03-23T09:11:10;38.15;;;30.90;;
26582;SDS011;14230;45.382;10.998;2023-03-23T09:13:39;39.90;;;32.00;;
26582;SDS011;14230;45.382;10.998;2023-03-23T09:16:07;38.97;;;29.63;;
26582;SDS011;14230;45.382;10.998;2023-03-23T09:18:34;44.15;;;33.13;;
26582;SDS011;14230;45.382;10.998;2023-03-23T09:21:02;44.08;;;28.92;;
26582;SDS011;14230;45.382;10.998;2023-03-23T09:23:29;38.17;;;29.98;;
26582;SDS011;14230;45.382;10.998;2023-03-23T09:25:56;41.25;;;32.13;;
26582;SDS011;14230;45.382;10.998;2023-03-23T09:28:22;42.15;;;31.13;;
26582;SDS011;14230;45.382;10.998;2023-03-23T09:30:49;44.75;;;31.25;;
26582;SDS011;14230;45.382;10.998;2023-03-23T09:33:17;41.20;;;31.75;;
26582;SDS011;14230;45.382;10.998;2023-03-23T09:35:43;42.00;;;30.50;;
26582;SDS011;14230;45.382;10.998;2023-03-23T09:38:10;37.58;;;31.65;;
26582;SDS011;14230;45.382;10.998;2023-03-23T09:40:46;39.83;;;31.15;;
26582;SDS011;14230;45.382;10.998;2023-03-23T09:53:46;37.53;;;28.65;;
26582;SDS011;14230;45.382;10.998;2023-03-23T09:56:17;39.15;;;28.73;;
26582;SDS011;14230;45.382;10.998;2023-03-23T09:58:46;36.58;;;27.33;;
26582;SDS011;14230;45.382;10.998;2023-03-23T10:01:26;30.65;;;27.10;;
26582;SDS011;14230;45.382;10.998;2023-03-23T10:04:00;32.15;;;26.85;;
26582;SDS011;14230;45.382;10.998;2023-03-23T10:06:31;36.13;;;28.17;;
26582;SDS011;14230;45.382;10.998;2023-03-23T10:08:58;29.88;;;26.58;;
26582;SDS011;14230;45.382;10.998;2023-03-23T10:11:44;38.10;;;28.55;;
26582;SDS011;14230;45.382;10.998;2023-03-23T10:25:56;37.10;;;30.33;;
26582;SDS011;14230;45.382;10.998;2023-03-23T10:28:35;44.30;;;32.38;;
26582;SDS011;14230;45.382;10.998;2023-03-23T10:31:04;39.90;;;31.25;;
26582;SDS011;14230;45.382;10.998;2023-03-23T10:33:41;39.38;;;30.45;;
26582;SDS011;14230;45.382;10.998;2023-03-23T10:38:41;50.72;;;34.03;;
26582;SDS011;14230;45.382;10.998;2023-03-23T10:41:12;40.88;;;32.13;;
26582;SDS011;14230;45.382;10.998;2023-03-23T10:43:44;44.63;;;32.85;;
26582;SDS011;14230;45.382;10.998;2023-03-23T10:49:09;39.95;;;30.65;;
26582;SDS011;14230;45.382;10.998;2023-03-23T10:51:41;40.80;;;32.17;;
26582;SDS011;14230;45.382;10.998;2023-03-23T10:54:10;40.97;;;30.83;;
26582;SDS011;14230;45.382;10.998;2023-03-23T10:56:38;45.45;;;32.90;;
26582;SDS011;14230;45.382;10.998;2023-03-23T10:59:14;36.88;;;31.23;;
26582;SDS011;14230;45.382;10.998;2023-03-23T11:01:50;42.55;;;31.58;;
26582;SDS011;14230;45.382;10.998;2023-03-23T11:04:20;41.90;;;31.50;;
26582;SDS011;14230;45.382;10.998;2023-03-23T11:06:50;39.42;;;30.42;;
26582;SDS011;14230;45.382;10.998;2023-03-23T11:09:33;45.85;;;32.78;;
26582;SDS011;14230;45.382;10.998;2023-03-23T11:12:02;38.70;;;30.90;;
26582;SDS011;14230;45.382;10.998;2023-03-23T11:14:30;43.42;;;32.38;;
26582;SDS011;14230;45.382;10.998;2023-03-23T11:17:00;45.08;;;32.25;;
26582;SDS011;14230;45.382;10.998;2023-03-23T11:19:32;40.78;;;30.58;;
26582;SDS011;14230;45.382;10.998;2023-03-23T11:24:33;41.10;;;30.48;;
26582;SDS011;14230;45.382;10.998;2023-03-23T11:27:02;44.85;;;30.70;;
26582;SDS011;14230;45.382;10.998;2023-03-23T11:29:32;45.20;;;31.15;;
26582;SDS011;14230;45.382;10.998;2023-03-23T11:34:40;44.15;;;31.60;;
26582;SDS011;14230;45.382;10.998;2023-03-23T11:37:23;40.80;;;31.50;;
26582;SDS011;14230;45.382;10.998;2023-03-23T11:39:58;46.25;;;33.00;;
26582;SDS011;14230;45.382;10.998;2023-03-23T11:46:05;46.83;;;33.92;;
26582;SDS011;14230;45.382;10.998;2023-03-23T11:53:35;45.65;;;32.83;;
26582;SDS011;14230;45.382;10.998;2023-03-23T11:58:48;47.03;;;31.35;;
26582;SDS011;14230;45.382;10.998;2023-03-23T12:06:32;47.45;;;32.85;;
26582;SDS011;14230;45.382;10.998;2023-03-23T12:15:25;45.63;;;31.80;;
26582;SDS011;14230;45.382;10.998;2023-03-23T12:23:04;43.90;;;32.05;;
26582;SDS011;14230;45.382;10.998;2023-03-23T12:25:49;46.78;;;32.25;;
26582;SDS011;14230;45.382;10.998;2023-03-23T12:33:58;51.97;;;32.90;;
26582;SDS011;14230;45.382;10.998;2023-03-23T12:44:53;50.10;;;30.92;;
26582;SDS011;14230;45.382;10.998;2023-03-23T12:52:46;50.22;;;31.90;;
26582;SDS011;14230;45.382;10.998;2023-03-23T12:55:20;50.08;;;30.40;;
26582;SDS011;14230;45.382;10.998;2023-03-23T12:57:59;48.40;;;28.80;;
26582;SDS011;14230;45.382;10.998;2023-03-23T13:05:53;42.78;;;26.70;;
26582;SDS011;14230;45.382;10.998;2023-03-23T13:08:38;44.47;;;28.13;;
26582;SDS011;14230;45.382;10.998;2023-03-23T13:11:10;49.47;;;28.92;;
26582;SDS011;14230;45.382;10.998;2023-03-23T13:13:51;49.35;;;27.52;;
26582;SDS011;14230;45.382;10.998;2023-03-23T13:16:36;40.47;;;26.48;;
26582;SDS011;14230;45.382;10.998;2023-03-23T13:28:18;40.17;;;24.77;;
26582;SDS011;14230;45.382;10.998;2023-03-23T13:30:58;52.55;;;33.15;;
26582;SDS011;14230;45.382;10.998;2023-03-23T13:33:28;38.17;;;24.85;;
26582;SDS011;14230;45.382;10.998;2023-03-23T13:36:12;42.13;;;26.30;;
26582;SDS011;14230;45.382;10.998;2023-03-23T13:38:49;40.90;;;27.85;;
26582;SDS011;14230;45.382;10.998;2023-03-23T13:41:17;47.63;;;27.48;;
26582;SDS011;14230;45.382;10.998;2023-03-23T13:43:47;43.20;;;25.73;;
26582;SDS011;14230;45.382;10.998;2023-03-23T13:46:24;48.60;;;25.45;;
26582;SDS011;14230;45.382;10.998;2023-03-23T13:49:16;34.42;;;24.95;;
26582;SDS011;14230;45.382;10.998;2023-03-23T13:57:00;39.88;;;28.13;;
26582;SDS011;14230;45.382;10.998;2023-03-23T13:59:35;39.88;;;29.38;;
26582;SDS011;14230;45.382;10.998;2023-03-23T14:04:56;49.65;;;31.55;;
26582;SDS011;14230;45.382;10.998;2023-03-23T14:07:23;44.58;;;30.42;;
26582;SDS011;14230;45.382;10.998;2023-03-23T14:09:50;40.05;;;28.25;;
26582;SDS011;14230;45.382;10.998;2023-03-23T14:12:18;41.75;;;28.90;;
26582;SDS011;14230;45.382;10.998;2023-03-23T14:14:48;44.97;;;27.75;;
26582;SDS011;14230;45.382;10.998;2023-03-23T14:17:19;43.35;;;27.27;;
26582;SDS011;14230;45.382;10.998;2023-03-23T14:19:51;42.78;;;27.23;;
26582;SDS011;14230;45.382;10.998;2023-03-23T14:22:26;37.13;;;26.70;;
26582;SDS011;14230;45.382;10.998;2023-03-23T14:25:01;39.42;;;28.70;;
26582;SDS011;14230;45.382;10.998;2023-03-23T14:27:36;42.80;;;29.90;;
26582;SDS011;14230;45.382;10.998;2023-03-23T14:30:06;50.47;;;30.10;;
26582;SDS011;14230;45.382;10.998;2023-03-23T14:35:04;51.33;;;30.80;;
26582;SDS011;14230;45.382;10.998;2023-03-23T14:37:54;45.22;;;31.23;;
26582;SDS011;14230;45.382;10.998;2023-03-23T14:40:21;46.80;;;29.98;;
26582;SDS011;14230;45.382;10.998;2023-03-23T14:42:49;44.15;;;30.85;;
26582;SDS011;14230;45.382;10.998;2023-03-23T14:45:17;75.68;;;48.92;;
26582;SDS011;14230;45.382;10.998;2023-03-23T14:47:49;43.92;;;28.02;;
26582;SDS011;14230;45.382;10.998;2023-03-23T14:50:37;38.50;;;27.13;;
26582;SDS011;14230;45.382;10.998;2023-03-23T14:53:24;44.67;;;27.23;;
26582;SDS011;14230;45.382;10.998;2023-03-23T14:55:59;45.00;;;27.33;;
26582;SDS011;14230;45.382;10.998;2023-03-23T14:58:29;45.50;;;29.15;;
26582;SDS011;14230;45.382;10.998;2023-03-23T15:01:00;38.95;;;25.80;;
26582;SDS011;14230;45.382;10.998;2023-03-23T15:03:33;38.90;;;23.95;;
26582;SDS011;14230;45.382;10.998;2023-03-23T15:06:09;42.58;;;24.85;;
26582;SDS011;14230;45.382;10.998;2023-03-23T15:08:41;39.15;;;24.35;;
26582;SDS011;14230;45.382;10.998;2023-03-23T15:11:12;40.42;;;24.42;;
26582;SDS011;14230;45.382;10.998;2023-03-23T15:13:46;39.20;;;22.90;;
26582;SDS011;14230;45.382;10.998;2023-03-23T15:16:19;39.35;;;22.98;;
26582;SDS011;14230;45.382;10.998;2023-03-23T15:18:56;34.40;;;20.23;;
26582;SDS011;14230;45.382;10.998;2023-03-23T15:21:34;30.48;;;19.75;;
26582;SDS011;14230;45.382;10.998;2023-03-23T15:24:24;32.78;;;19.67;;
26582;SDS011;14230;45.382;10.998;2023-03-23T15:26:53;32.08;;;20.77;;
26582;SDS011;14230;45.382;10.998;2023-03-23T15:29:28;30.17;;;19.55;;
26582;SDS011;14230;45.382;10.998;2023-03-23T15:31:54;29.52;;;18.27;;
26582;SDS011;14230;45.382;10.998;2023-03-23T15:34:27;30.98;;;18.73;;
26582;SDS011;14230;45.382;10.998;2023-03-23T15:36:55;39.15;;;17.70;;
26582;SDS011;14230;45.382;10.998;2023-03-23T15:39:29;25.52;;;17.83;;
26582;SDS011;14230;45.382;10.998;2023-03-23T15:41:57;25.55;;;17.13;;
26582;SDS011;14230;45.382;10.998;2023-03-23T15:44:28;29.58;;;16.17;;
26582;SDS011;14230;45.382;10.998;2023-03-23T15:49:44;30.33;;;17.55;;
26582;SDS011;14230;45.382;10.998;2023-03-23T15:52:12;26.88;;;15.57;;
26582;SDS011;14230;45.382;10.998;2023-03-23T15:54:49;26.33;;;15.57;;
26582;SDS011;14230;45.382;10.998;2023-03-23T15:57:15;28.83;;;14.60;;
26582;SDS011;14230;45.382;10.998;2023-03-23T15:59:42;29.00;;;16.10;;
26582;SDS011;14230;45.382;10.998;2023-03-23T16:02:15;26.95;;;13.85;;
26582;SDS011;14230;45.382;10.998;2023-03-23T16:04:49;24.95;;;13.45;;
26582;SDS011;14230;45.382;10.998;2023-03-23T16:07:18;24.05;;;15.02;;
26582;SDS011;14230;45.382;10.998;2023-03-23T16:09:49;29.83;;;13.68;;
26582;SDS011;14230;45.382;10.998;2023-03-23T16:12:17;24.35;;;13.80;;
26582;SDS011;14230;45.382;10.998;2023-03-23T16:14:44;22.70;;;13.13;;
26582;SDS011;14230;45.382;10.998;2023-03-23T16:17:13;29.55;;;13.43;;
26582;SDS011;14230;45.382;10.998;2023-03-23T16:19:43;23.05;;;13.15;;
26582;SDS011;14230;45.382;10.998;2023-03-23T16:22:11;25.23;;;12.48;;
26582;SDS011;14230;45.382;10.998;2023-03-23T16:24:38;20.77;;;12.13;;
26582;SDS011;14230;45.382;10.998;2023-03-23T16:27:08;26.05;;;13.45;;
26582;SDS011;14230;45.382;10.998;2023-03-23T16:29:36;22.60;;;12.88;;
26582;SDS011;14230;45.382;10.998;2023-03-23T16:32:23;23.88;;;12.52;;
26582;SDS011;14230;45.382;10.998;2023-03-23T16:34:51;18.45;;;11.38;;
26582;SDS011;14230;45.382;10.998;2023-03-23T16:37:18;38.72;;;13.10;;
26582;SDS011;14230;45.382;10.998;2023-03-23T16:39:46;27.10;;;12.35;;
26582;SDS011;14230;45.382;10.998;2023-03-23T16:42:17;21.42;;;11.18;;
26582;SDS011;14230;45.382;10.998;2023-03-23T16:44:46;21.88;;;12.68;;
26582;SDS011;14230;45.382;10.998;2023-03-23T16:47:18;22.13;;;13.00;;
26582;SDS011;14230;45.382;10.998;2023-03-23T16:52:20;21.02;;;12.23;;
26582;SDS011;14230;45.382;10.998;2023-03-23T16:54:47;22.80;;;12.50;;
26582;SDS011;14230;45.382;10.998;2023-03-23T16:57:15;23.27;;;11.77;;
26582;SDS011;14230;45.382;10.998;2023-03-23T16:59:42;23.45;;;11.77;;